sensor_id;sensor_type;location;lat;lon;timestamp;P1;durP1;ratioP1;P2;durP2;ratioP2
14100;SDS011;7127;49.372;8.166;2022-11-21T00:00:47;1.27;;;0.50;;
14100;SDS011;7127;49.372;8.166;2022-11-21T00:03:15;1.97;;;1.00;;
14100;SDS011;7127;49.372;8.166;2022-11-21T00:05:45;2.20;;;0.70;;
14100;SDS011;7127;49.372;8.166;2022-11-21T00:08:14;1.00;;;0.80;;
14100;SDS011;7127;49.372;8.166;2022-11-21T00:10:42;2.00;;;0.90;;
14100;SDS011;7127;49.372;8.166;2022-11-21T00:13:11;0.60;;;0.50;;
14100;SDS011;7127;49.372;8.166;2022-11-21T00:15:39;0.63;;;0.40;;
14100;SDS011;7127;49.372;8.166;2022-11-21T00:18:06;1.10;;;0.63;;
14100;SDS011;7127;49.372;8.166;2022-11-21T00:20:33;1.03;;;0.53;;
14100;SDS011;7127;49.372;8.166;2022-11-21T00:23:02;1.50;;;0.80;;
14100;SDS011;7127;49.372;8.166;2022-11-21T00:25:29;2.87;;;0.73;;
14100;SDS011;7127;49.372;8.166;2022-11-21T00:27:56;1.60;;;0.90;;
14100;SDS011;7127;49.372;8.166;2022-11-21T00:30:23;2.73;;;0.87;;
14100;SDS011;7127;49.372;8.166;2022-11-21T00:32:50;1.33;;;0.67;;
14100;SDS011;7127;49.372;8.166;2022-11-21T00:35:17;3.20;;;1.00;;
14100;SDS011;7127;49.372;8.166;2022-11-21T00:37:44;3.80;;;1.13;;
14100;SDS011;7127;49.372;8.166;2022-11-21T00:40:14;2.00;;;1.03;;
14100;SDS011;7127;49.372;8.166;2022-11-21T00:42:41;1.87;;;0.87;;
14100;SDS011;7127;49.372;8.166;2022-11-21T00:45:08;2.03;;;1.10;;
14100;SDS011;7127;49.372;8.166;2022-11-21T00:47:35;2.37;;;0.90;;
14100;SDS011;7127;49.372;8.166;2022-11-21T00:50:03;2.23;;;0.83;;
14100;SDS011;7127;49.372;8.166;2022-11-21T00:52:30;2.00;;;1.17;;
14100;SDS011;7127;49.372;8.166;2022-11-21T00:54:57;3.00;;;0.90;;
14100;SDS011;7127;49.372;8.166;2022-11-21T00:57:25;2.37;;;0.90;;
14100;SDS011;7127;49.372;8.166;2022-11-21T00:59:52;1.20;;;0.83;;
14100;SDS011;7127;49.372;8.166;2022-11-21T01:02:19;3.20;;;1.27;;
14100;SDS011;7127;49.372;8.166;2022-11-21T01:04:46;2.77;;;1.30;;
14100;SDS011;7127;49.372;8.166;2022-11-21T01:07:12;2.37;;;0.93;;
14100;SDS011;7127;49.372;8.166;2022-11-21T01:09:40;1.40;;;0.70;;
14100;SDS011;7127;49.372;8.166;2022-11-21T01:12:07;4.07;;;1.33;;
14100;SDS011;7127;49.372;8.166;2022-11-21T01:14:35;2.63;;;0.73;;
14100;SDS011;7127;49.372;8.166;2022-11-21T01:17:02;1.53;;;0.87;;
14100;SDS011;7127;49.372;8.166;2022-11-21T01:19:29;2.13;;;0.73;;
14100;SDS011;7127;49.372;8.166;2022-11-21T01:21:56;1.57;;;0.70;;
14100;SDS011;7127;49.372;8.166;2022-11-21T01:24:23;1.60;;;1.00;;
14100;SDS011;7127;49.372;8.166;2022-11-21T01:26:49;1.77;;;0.70;;
14100;SDS011;7127;49.372;8.166;2022-11-21T01:29:18;1.10;;;0.60;;
14100;SDS011;7127;49.372;8.166;2022-11-21T01:31:46;2.30;;;0.60;;
14100;SDS011;7127;49.372;8.166;2022-11-21T01:34:14;1.17;;;0.67;;
14100;SDS011;7127;49.372;8.166;2022-11-21T01:36:41;1.00;;;0.80;;
14100;SDS011;7127;49.372;8.166;2022-11-21T01:39:09;1.90;;;0.70;;
14100;SDS011;7127;49.372;8.166;2022-11-21T01:41:38;1.33;;;0.70;;
14100;SDS011;7127;49.372;8.166;2022-11-21T01:44:09;2.57;;;0.90;;
14100;SDS011;7127;49.372;8.166;2022-11-21T01:46:40;1.43;;;0.60;;
14100;SDS011;7127;49.372;8.166;2022-11-21T01:49:08;1.00;;;0.80;;
14100;SDS011;7127;49.372;8.166;2022-11-21T01:51:39;1.23;;;0.70;;
14100;SDS011;7127;49.372;8.166;2022-11-21T01:54:10;0.90;;;0.70;;
14100;SDS011;7127;49.372;8.166;2022-11-21T01:56:42;2.53;;;0.73;;
14100;SDS011;7127;49.372;8.166;2022-11-21T01:59:14;1.83;;;1.20;;
14100;SDS011;7127;49.372;8.166;2022-11-21T02:01:45;1.20;;;1.00;;
14100;SDS011;7127;49.372;8.166;2022-11-21T02:04:16;1.43;;;0.73;;
14100;SDS011;7127;49.372;8.166;2022-11-21T02:06:44;1.53;;;0.53;;
14100;SDS011;7127;49.372;8.166;2022-11-21T02:09:11;1.43;;;0.70;;
14100;SDS011;7127;49.372;8.166;2022-11-21T02:11:39;1.63;;;0.53;;
14100;SDS011;7127;49.372;8.166;2022-11-21T02:14:08;1.33;;;0.80;;
14100;SDS011;7127;49.372;8.166;2022-11-21T02:16:36;1.43;;;0.80;;
14100;SDS011;7127;49.372;8.166;2022-11-21T02:19:04;1.70;;;0.80;;
14100;SDS011;7127;49.372;8.166;2022-11-21T02:21:39;1.37;;;0.60;;
14100;SDS011;7127;49.372;8.166;2022-11-21T02:24:14;1.13;;;0.50;;
14100;SDS011;7127;49.372;8.166;2022-11-21T02:26:48;1.90;;;0.70;;
14100;SDS011;7127;49.372;8.166;2022-11-21T02:29:15;1.77;;;0.80;;
14100;SDS011;7127;49.372;8.166;2022-11-21T02:31:42;2.33;;;0.87;;
14100;SDS011;7127;49.372;8.166;2022-11-21T02:34:09;1.73;;;0.90;;
14100;SDS011;7127;49.372;8.166;2022-11-21T02:36:37;2.40;;;0.90;;
14100;SDS011;7127;49.372;8.166;2022-11-21T02:39:07;0.80;;;0.50;;
14100;SDS011;7127;49.372;8.166;2022-11-21T02:41:38;0.80;;;0.60;;
14100;SDS011;7127;49.372;8.166;2022-11-21T02:44:11;1.67;;;0.73;;
14100;SDS011;7127;49.372;8.166;2022-11-21T02:46:45;1.47;;;0.80;;
14100;SDS011;7127;49.372;8.166;2022-11-21T02:49:14;1.80;;;0.83;;
14100;SDS011;7127;49.372;8.166;2022-11-21T02:51:43;2.03;;;0.77;;
14100;SDS011;7127;49.372;8.166;2022-11-21T02:54:10;0.70;;;0.60;;
14100;SDS011;7127;49.372;8.166;2022-11-21T02:56:37;0.93;;;0.53;;
14100;SDS011;7127;49.372;8.166;2022-11-21T02:59:04;1.90;;;0.80;;
14100;SDS011;7127;49.372;8.166;2022-11-21T03:01:32;1.20;;;0.60;;
14100;SDS011;7127;49.372;8.166;2022-11-21T03:03:59;2.60;;;0.70;;
14100;SDS011;7127;49.372;8.166;2022-11-21T03:06:26;1.10;;;0.70;;
14100;SDS011;7127;49.372;8.166;2022-11-21T03:08:52;0.90;;;0.47;;
14100;SDS011;7127;49.372;8.166;2022-11-21T03:11:19;1.17;;;0.40;;
14100;SDS011;7127;49.372;8.166;2022-11-21T03:13:46;0.63;;;0.53;;
14100;SDS011;7127;49.372;8.166;2022-11-21T03:16:13;1.00;;;0.50;;
14100;SDS011;7127;49.372;8.166;2022-11-21T03:18:41;0.37;;;0.33;;
14100;SDS011;7127;49.372;8.166;2022-11-21T03:21:08;0.50;;;0.43;;
14100;SDS011;7127;49.372;8.166;2022-11-21T03:23:35;0.57;;;0.30;;
14100;SDS011;7127;49.372;8.166;2022-11-21T03:26:02;0.80;;;0.60;;
14100;SDS011;7127;49.372;8.166;2022-11-21T03:28:29;0.50;;;0.30;;
14100;SDS011;7127;49.372;8.166;2022-11-21T03:30:55;1.00;;;0.40;;
14100;SDS011;7127;49.372;8.166;2022-11-21T03:33:22;1.17;;;0.70;;
14100;SDS011;7127;49.372;8.166;2022-11-21T03:35:50;0.73;;;0.43;;
14100;SDS011;7127;49.372;8.166;2022-11-21T03:38:17;1.37;;;0.33;;
14100;SDS011;7127;49.372;8.166;2022-11-21T03:40:44;0.60;;;0.50;;
14100;SDS011;7127;49.372;8.166;2022-11-21T03:43:11;0.67;;;0.50;;
14100;SDS011;7127;49.372;8.166;2022-11-21T03:45:38;0.30;;;0.23;;
14100;SDS011;7127;49.372;8.166;2022-11-21T03:48:05;0.57;;;0.27;;
14100;SDS011;7127;49.372;8.166;2022-11-21T03:50:32;0.50;;;0.27;;
14100;SDS011;7127;49.372;8.166;2022-11-21T03:53:00;0.30;;;0.30;;
14100;SDS011;7127;49.372;8.166;2022-11-21T03:55:27;0.40;;;0.33;;
14100;SDS011;7127;49.372;8.166;2022-11-21T03:57:54;0.63;;;0.30;;
14100;SDS011;7127;49.372;8.166;2022-11-21T04:00:21;0.40;;;0.40;;
14100;SDS011;7127;49.372;8.166;2022-11-21T04:02:48;0.90;;;0.30;;
14100;SDS011;7127;49.372;8.166;2022-11-21T04:05:15;0.60;;;0.40;;
14100;SDS011;7127;49.372;8.166;2022-11-21T04:07:42;0.30;;;0.20;;
14100;SDS011;7127;49.372;8.166;2022-11-21T04:10:10;0.70;;;0.37;;
14100;SDS011;7127;49.372;8.166;2022-11-21T04:12:37;0.57;;;0.23;;
14100;SDS011;7127;49.372;8.166;2022-11-21T04:15:04;0.37;;;0.23;;
14100;SDS011;7127;49.372;8.166;2022-11-21T04:17:31;0.93;;;0.57;;
14100;SDS011;7127;49.372;8.166;2022-11-21T04:19:58;0.50;;;0.40;;
14100;SDS011;7127;49.372;8.166;2022-11-21T04:22:25;0.43;;;0.33;;
14100;SDS011;7127;49.372;8.166;2022-11-21T04:24:52;1.37;;;0.43;;
14100;SDS011;7127;49.372;8.166;2022-11-21T04:27:20;0.30;;;0.20;;
14100;SDS011;7127;49.372;8.166;2022-11-21T04:29:47;1.03;;;0.50;;
14100;SDS011;7127;49.372;8.166;2022-11-21T04:32:14;0.57;;;0.50;;
14100;SDS011;7127;49.372;8.166;2022-11-21T04:34:40;0.90;;;0.53;;
14100;SDS011;7127;49.372;8.166;2022-11-21T04:37:07;0.70;;;0.40;;
14100;SDS011;7127;49.372;8.166;2022-11-21T04:39:34;0.40;;;0.40;;
14100;SDS011;7127;49.372;8.166;2022-11-21T04:42:01;0.93;;;0.60;;
14100;SDS011;7127;49.372;8.166;2022-11-21T04:44:29;0.80;;;0.60;;
14100;SDS011;7127;49.372;8.166;2022-11-21T04:46:56;0.80;;;0.60;;
14100;SDS011;7127;49.372;8.166;2022-11-21T04:49:24;0.77;;;0.50;;
14100;SDS011;7127;49.372;8.166;2022-11-21T04:51:51;1.83;;;0.80;;
14100;SDS011;7127;49.372;8.166;2022-11-21T04:54:17;0.77;;;0.50;;
14100;SDS011;7127;49.372;8.166;2022-11-21T04:56:44;0.87;;;0.50;;
14100;SDS011;7127;49.372;8.166;2022-11-21T04:59:11;1.03;;;0.63;;
14100;SDS011;7127;49.372;8.166;2022-11-21T05:01:39;2.23;;;0.70;;
14100;SDS011;7127;49.372;8.166;2022-11-21T05:04:06;1.53;;;0.70;;
14100;SDS011;7127;49.372;8.166;2022-11-21T05:06:33;0.67;;;0.57;;
14100;SDS011;7127;49.372;8.166;2022-11-21T05:09:00;1.10;;;0.70;;
14100;SDS011;7127;49.372;8.166;2022-11-21T05:11:27;1.20;;;0.63;;
14100;SDS011;7127;49.372;8.166;2022-11-21T05:14:11;1.73;;;0.50;;
14100;SDS011;7127;49.372;8.166;2022-11-21T05:16:40;1.87;;;0.90;;
14100;SDS011;7127;49.372;8.166;2022-11-21T05:19:07;0.70;;;0.60;;
14100;SDS011;7127;49.372;8.166;2022-11-21T05:21:34;1.77;;;0.87;;
14100;SDS011;7127;49.372;8.166;2022-11-21T05:24:01;1.67;;;0.70;;
14100;SDS011;7127;49.372;8.166;2022-11-21T05:26:28;0.80;;;0.80;;
14100;SDS011;7127;49.372;8.166;2022-11-21T05:28:54;1.13;;;0.77;;
14100;SDS011;7127;49.372;8.166;2022-11-21T05:31:21;1.73;;;0.83;;
14100;SDS011;7127;49.372;8.166;2022-11-21T05:33:50;2.20;;;1.03;;
14100;SDS011;7127;49.372;8.166;2022-11-21T05:36:16;2.10;;;0.83;;
14100;SDS011;7127;49.372;8.166;2022-11-21T05:38:43;1.20;;;0.70;;
14100;SDS011;7127;49.372;8.166;2022-11-21T05:41:10;1.63;;;1.00;;
14100;SDS011;7127;49.372;8.166;2022-11-21T05:43:37;1.17;;;0.70;;
14100;SDS011;7127;49.372;8.166;2022-11-21T05:46:13;2.00;;;0.90;;
14100;SDS011;7127;49.372;8.166;2022-11-21T05:48:41;1.13;;;0.70;;
14100;SDS011;7127;49.372;8.166;2022-11-21T05:51:10;2.20;;;0.80;;
14100;SDS011;7127;49.372;8.166;2022-11-21T05:53:37;0.60;;;0.60;;
14100;SDS011;7127;49.372;8.166;2022-11-21T05:56:04;1.53;;;0.83;;
14100;SDS011;7127;49.372;8.166;2022-11-21T05:58:33;2.03;;;0.70;;
14100;SDS011;7127;49.372;8.166;2022-11-21T06:01:01;2.10;;;1.00;;
14100;SDS011;7127;49.372;8.166;2022-11-21T06:03:29;1.33;;;0.90;;
14100;SDS011;7127;49.372;8.166;2022-11-21T06:05:58;1.33;;;0.80;;
14100;SDS011;7127;49.372;8.166;2022-11-21T06:08:28;3.60;;;1.00;;
14100;SDS011;7127;49.372;8.166;2022-11-21T06:10:56;0.87;;;0.63;;
14100;SDS011;7127;49.372;8.166;2022-11-21T06:13:22;2.07;;;0.77;;
14100;SDS011;7127;49.372;8.166;2022-11-21T06:15:50;0.73;;;0.60;;
14100;SDS011;7127;49.372;8.166;2022-11-21T06:18:18;1.13;;;0.80;;
14100;SDS011;7127;49.372;8.166;2022-11-21T06:20:46;1.67;;;0.90;;
14100;SDS011;7127;49.372;8.166;2022-11-21T06:23:13;1.57;;;0.80;;
14100;SDS011;7127;49.372;8.166;2022-11-21T06:25:41;2.93;;;1.13;;
14100;SDS011;7127;49.372;8.166;2022-11-21T06:28:09;4.10;;;1.00;;
14100;SDS011;7127;49.372;8.166;2022-11-21T06:30:36;1.77;;;0.83;;
14100;SDS011;7127;49.372;8.166;2022-11-21T06:33:03;2.50;;;0.90;;
14100;SDS011;7127;49.372;8.166;2022-11-21T06:35:31;3.03;;;1.17;;
14100;SDS011;7127;49.372;8.166;2022-11-21T06:38:02;2.30;;;1.23;;
14100;SDS011;7127;49.372;8.166;2022-11-21T06:40:29;3.17;;;1.00;;
14100;SDS011;7127;49.372;8.166;2022-11-21T06:42:57;1.00;;;0.73;;
14100;SDS011;7127;49.372;8.166;2022-11-21T06:45:24;4.23;;;1.40;;
14100;SDS011;7127;49.372;8.166;2022-11-21T06:47:51;3.13;;;1.07;;
14100;SDS011;7127;49.372;8.166;2022-11-21T06:50:18;1.60;;;1.00;;
14100;SDS011;7127;49.372;8.166;2022-11-21T06:52:45;2.17;;;1.20;;
14100;SDS011;7127;49.372;8.166;2022-11-21T06:55:12;2.90;;;1.50;;
14100;SDS011;7127;49.372;8.166;2022-11-21T06:57:39;1.20;;;0.93;;
14100;SDS011;7127;49.372;8.166;2022-11-21T07:00:08;1.90;;;0.97;;
14100;SDS011;7127;49.372;8.166;2022-11-21T07:02:35;1.30;;;0.90;;
14100;SDS011;7127;49.372;8.166;2022-11-21T07:05:02;2.60;;;1.00;;
14100;SDS011;7127;49.372;8.166;2022-11-21T07:07:30;2.60;;;1.00;;
14100;SDS011;7127;49.372;8.166;2022-11-21T07:09:56;2.17;;;1.03;;
14100;SDS011;7127;49.372;8.166;2022-11-21T07:12:23;3.23;;;1.20;;
14100;SDS011;7127;49.372;8.166;2022-11-21T07:15:09;3.10;;;1.20;;
14100;SDS011;7127;49.372;8.166;2022-11-21T07:17:36;2.17;;;1.60;;
14100;SDS011;7127;49.372;8.166;2022-11-21T07:20:04;1.90;;;1.30;;
14100;SDS011;7127;49.372;8.166;2022-11-21T07:22:32;1.93;;;1.00;;
14100;SDS011;7127;49.372;8.166;2022-11-21T07:24:58;1.50;;;1.03;;
14100;SDS011;7127;49.372;8.166;2022-11-21T07:27:25;1.90;;;1.00;;
14100;SDS011;7127;49.372;8.166;2022-11-21T07:29:52;1.47;;;0.80;;
14100;SDS011;7127;49.372;8.166;2022-11-21T07:32:22;1.83;;;0.80;;
14100;SDS011;7127;49.372;8.166;2022-11-21T07:34:49;2.00;;;0.97;;
14100;SDS011;7127;49.372;8.166;2022-11-21T07:37:16;2.30;;;1.10;;
14100;SDS011;7127;49.372;8.166;2022-11-21T07:39:43;2.23;;;1.00;;
14100;SDS011;7127;49.372;8.166;2022-11-21T07:42:10;1.47;;;0.80;;
14100;SDS011;7127;49.372;8.166;2022-11-21T07:44:37;1.37;;;0.80;;
14100;SDS011;7127;49.372;8.166;2022-11-21T07:47:04;1.63;;;0.90;;
14100;SDS011;7127;49.372;8.166;2022-11-21T07:49:33;0.83;;;0.57;;
14100;SDS011;7127;49.372;8.166;2022-11-21T07:51:59;1.47;;;0.80;;
14100;SDS011;7127;49.372;8.166;2022-11-21T07:54:26;1.30;;;0.80;;
14100;SDS011;7127;49.372;8.166;2022-11-21T07:56:53;1.47;;;0.70;;
14100;SDS011;7127;49.372;8.166;2022-11-21T07:59:20;2.27;;;0.83;;
14100;SDS011;7127;49.372;8.166;2022-11-21T08:01:49;1.87;;;0.80;;
14100;SDS011;7127;49.372;8.166;2022-11-21T08:04:17;2.80;;;1.20;;
14100;SDS011;7127;49.372;8.166;2022-11-21T08:06:45;3.90;;;1.10;;
14100;SDS011;7127;49.372;8.166;2022-11-21T08:09:12;1.63;;;0.80;;
14100;SDS011;7127;49.372;8.166;2022-11-21T08:11:39;1.77;;;0.93;;
14100;SDS011;7127;49.372;8.166;2022-11-21T08:14:06;1.30;;;0.80;;
14100;SDS011;7127;49.372;8.166;2022-11-21T08:16:33;1.30;;;0.90;;
14100;SDS011;7127;49.372;8.166;2022-11-21T08:19:00;1.60;;;0.73;;
14100;SDS011;7127;49.372;8.166;2022-11-21T08:21:31;1.97;;;0.93;;
14100;SDS011;7127;49.372;8.166;2022-11-21T08:24:00;1.10;;;0.60;;
14100;SDS011;7127;49.372;8.166;2022-11-21T08:26:27;3.57;;;1.03;;
14100;SDS011;7127;49.372;8.166;2022-11-21T08:28:54;3.23;;;0.90;;
14100;SDS011;7127;49.372;8.166;2022-11-21T08:31:20;2.10;;;1.10;;
14100;SDS011;7127;49.372;8.166;2022-11-21T08:33:47;1.47;;;0.90;;
14100;SDS011;7127;49.372;8.166;2022-11-21T08:36:14;0.93;;;0.73;;
14100;SDS011;7127;49.372;8.166;2022-11-21T08:38:41;1.50;;;0.97;;
14100;SDS011;7127;49.372;8.166;2022-11-21T08:41:11;2.43;;;1.03;;
14100;SDS011;7127;49.372;8.166;2022-11-21T08:43:55;1.70;;;0.73;;
14100;SDS011;7127;49.372;8.166;2022-11-21T08:46:22;2.93;;;1.00;;
14100;SDS011;7127;49.372;8.166;2022-11-21T08:48:51;1.73;;;0.80;;
14100;SDS011;7127;49.372;8.166;2022-11-21T08:51:18;1.20;;;0.73;;
14100;SDS011;7127;49.372;8.166;2022-11-21T08:53:45;4.57;;;1.37;;
14100;SDS011;7127;49.372;8.166;2022-11-21T08:56:13;3.57;;;1.07;;
14100;SDS011;7127;49.372;8.166;2022-11-21T08:58:40;2.20;;;0.90;;
14100;SDS011;7127;49.372;8.166;2022-11-21T09:01:07;1.17;;;0.80;;
14100;SDS011;7127;49.372;8.166;2022-11-21T09:03:34;2.27;;;0.80;;
14100;SDS011;7127;49.372;8.166;2022-11-21T09:06:01;1.47;;;0.80;;
14100;SDS011;7127;49.372;8.166;2022-11-21T09:08:28;1.07;;;0.70;;
14100;SDS011;7127;49.372;8.166;2022-11-21T09:10:55;1.00;;;0.67;;
14100;SDS011;7127;49.372;8.166;2022-11-21T09:13:23;1.57;;;0.70;;
14100;SDS011;7127;49.372;8.166;2022-11-21T09:15:50;1.53;;;0.80;;
14100;SDS011;7127;49.372;8.166;2022-11-21T09:18:34;0.50;;;0.50;;
14100;SDS011;7127;49.372;8.166;2022-11-21T09:21:01;2.53;;;0.83;;
14100;SDS011;7127;49.372;8.166;2022-11-21T09:23:28;1.27;;;0.80;;
14100;SDS011;7127;49.372;8.166;2022-11-21T09:25:54;1.93;;;0.87;;
14100;SDS011;7127;49.372;8.166;2022-11-21T09:28:23;1.90;;;0.80;;
14100;SDS011;7127;49.372;8.166;2022-11-21T09:30:49;3.20;;;0.90;;
14100;SDS011;7127;49.372;8.166;2022-11-21T09:33:16;2.57;;;0.80;;
14100;SDS011;7127;49.372;8.166;2022-11-21T09:35:43;2.47;;;1.30;;
14100;SDS011;7127;49.372;8.166;2022-11-21T09:38:10;2.60;;;1.13;;
14100;SDS011;7127;49.372;8.166;2022-11-21T09:40:38;3.30;;;1.20;;
14100;SDS011;7127;49.372;8.166;2022-11-21T09:43:17;2.03;;;0.80;;
14100;SDS011;7127;49.372;8.166;2022-11-21T09:46:00;2.83;;;0.90;;
14100;SDS011;7127;49.372;8.166;2022-11-21T09:48:32;2.03;;;0.97;;
14100;SDS011;7127;49.372;8.166;2022-11-21T09:51:05;1.63;;;0.83;;
14100;SDS011;7127;49.372;8.166;2022-11-21T09:53:37;3.17;;;1.00;;
14100;SDS011;7127;49.372;8.166;2022-11-21T09:56:11;2.20;;;1.10;;
14100;SDS011;7127;49.372;8.166;2022-11-21T09:58:42;2.83;;;1.27;;
14100;SDS011;7127;49.372;8.166;2022-11-21T10:01:14;1.77;;;0.90;;
14100;SDS011;7127;49.372;8.166;2022-11-21T10:03:42;1.73;;;0.80;;
14100;SDS011;7127;49.372;8.166;2022-11-21T10:06:13;2.10;;;0.90;;
14100;SDS011;7127;49.372;8.166;2022-11-21T10:08:46;1.67;;;0.90;;
14100;SDS011;7127;49.372;8.166;2022-11-21T10:11:22;2.50;;;1.20;;
14100;SDS011;7127;49.372;8.166;2022-11-21T10:14:05;1.90;;;1.10;;
14100;SDS011;7127;49.372;8.166;2022-11-21T10:16:42;2.20;;;1.23;;
14100;SDS011;7127;49.372;8.166;2022-11-21T10:19:24;1.83;;;1.20;;
14100;SDS011;7127;49.372;8.166;2022-11-21T10:22:16;3.30;;;1.30;;
14100;SDS011;7127;49.372;8.166;2022-11-21T10:24:58;3.07;;;1.43;;
14100;SDS011;7127;49.372;8.166;2022-11-21T10:27:37;3.50;;;1.17;;
14100;SDS011;7127;49.372;8.166;2022-11-21T10:30:14;2.27;;;1.20;;
14100;SDS011;7127;49.372;8.166;2022-11-21T10:32:42;2.43;;;1.37;;
14100;SDS011;7127;49.372;8.166;2022-11-21T10:35:13;1.37;;;1.00;;
14100;SDS011;7127;49.372;8.166;2022-11-21T10:37:44;3.43;;;1.37;;
14100;SDS011;7127;49.372;8.166;2022-11-21T10:40:20;3.47;;;1.23;;
14100;SDS011;7127;49.372;8.166;2022-11-21T10:42:55;3.03;;;1.37;;
14100;SDS011;7127;49.372;8.166;2022-11-21T10:45:46;2.37;;;1.20;;
14100;SDS011;7127;49.372;8.166;2022-11-21T10:48:13;3.70;;;1.53;;
14100;SDS011;7127;49.372;8.166;2022-11-21T10:50:41;3.10;;;1.07;;
14100;SDS011;7127;49.372;8.166;2022-11-21T10:53:19;2.10;;;0.80;;
14100;SDS011;7127;49.372;8.166;2022-11-21T10:56:06;2.33;;;1.00;;
14100;SDS011;7127;49.372;8.166;2022-11-21T10:58:36;2.07;;;0.90;;
14100;SDS011;7127;49.372;8.166;2022-11-21T11:01:18;2.03;;;0.90;;
14100;SDS011;7127;49.372;8.166;2022-11-21T11:03:46;1.83;;;0.80;;
14100;SDS011;7127;49.372;8.166;2022-11-21T11:06:29;3.90;;;1.23;;
14100;SDS011;7127;49.372;8.166;2022-11-21T11:08:56;2.63;;;1.07;;
14100;SDS011;7127;49.372;8.166;2022-11-21T11:11:23;2.70;;;0.93;;
14100;SDS011;7127;49.372;8.166;2022-11-21T11:13:55;2.00;;;1.00;;
14100;SDS011;7127;49.372;8.166;2022-11-21T11:16:24;2.33;;;1.10;;
14100;SDS011;7127;49.372;8.166;2022-11-21T11:18:56;2.30;;;1.00;;
14100;SDS011;7127;49.372;8.166;2022-11-21T11:21:25;1.93;;;0.90;;
14100;SDS011;7127;49.372;8.166;2022-11-21T11:23:54;2.87;;;1.10;;
14100;SDS011;7127;49.372;8.166;2022-11-21T11:26:49;1.37;;;1.00;;
14100;SDS011;7127;49.372;8.166;2022-11-21T11:29:18;3.07;;;1.00;;
14100;SDS011;7127;49.372;8.166;2022-11-21T11:31:51;1.63;;;0.93;;
14100;SDS011;7127;49.372;8.166;2022-11-21T11:34:21;1.53;;;0.73;;
14100;SDS011;7127;49.372;8.166;2022-11-21T11:37:00;1.80;;;0.90;;
14100;SDS011;7127;49.372;8.166;2022-11-21T11:39:37;1.20;;;0.80;;
14100;SDS011;7127;49.372;8.166;2022-11-21T11:45:36;2.20;;;0.87;;
14100;SDS011;7127;49.372;8.166;2022-11-21T11:48:33;2.70;;;0.80;;
14100;SDS011;7127;49.372;8.166;2022-11-21T11:51:03;1.33;;;0.93;;
14100;SDS011;7127;49.372;8.166;2022-11-21T11:53:40;3.93;;;0.80;;
14100;SDS011;7127;49.372;8.166;2022-11-21T11:56:14;1.53;;;0.87;;
14100;SDS011;7127;49.372;8.166;2022-11-21T11:58:46;0.80;;;0.70;;
14100;SDS011;7127;49.372;8.166;2022-11-21T12:01:17;2.17;;;0.80;;
14100;SDS011;7127;49.372;8.166;2022-11-21T12:03:49;3.40;;;1.33;;
14100;SDS011;7127;49.372;8.166;2022-11-21T12:06:24;1.97;;;1.30;;
14100;SDS011;7127;49.372;8.166;2022-11-21T12:08:55;1.93;;;1.10;;
14100;SDS011;7127;49.372;8.166;2022-11-21T12:11:32;1.13;;;0.67;;
14100;SDS011;7127;49.372;8.166;2022-11-21T12:14:31;1.93;;;1.00;;
14100;SDS011;7127;49.372;8.166;2022-11-21T12:17:32;1.80;;;0.80;;
14100;SDS011;7127;49.372;8.166;2022-11-21T12:20:14;2.23;;;0.90;;
14100;SDS011;7127;49.372;8.166;2022-11-21T12:22:46;1.63;;;0.70;;
14100;SDS011;7127;49.372;8.166;2022-11-21T12:25:17;1.33;;;0.73;;
14100;SDS011;7127;49.372;8.166;2022-11-21T12:27:49;1.47;;;0.77;;
14100;SDS011;7127;49.372;8.166;2022-11-21T12:30:22;1.50;;;0.67;;
14100;SDS011;7127;49.372;8.166;2022-11-21T12:33:02;1.10;;;1.00;;
14100;SDS011;7127;49.372;8.166;2022-11-21T12:38:28;1.90;;;1.00;;
14100;SDS011;7127;49.372;8.166;2022-11-21T12:41:13;1.77;;;0.93;;
14100;SDS011;7127;49.372;8.166;2022-11-21T12:44:11;2.83;;;1.40;;
14100;SDS011;7127;49.372;8.166;2022-11-21T12:46:54;2.27;;;1.23;;
14100;SDS011;7127;49.372;8.166;2022-11-21T12:49:43;1.90;;;0.80;;
14100;SDS011;7127;49.372;8.166;2022-11-21T12:52:36;1.83;;;0.90;;
14100;SDS011;7127;49.372;8.166;2022-11-21T12:55:28;1.90;;;0.80;;
14100;SDS011;7127;49.372;8.166;2022-11-21T12:58:13;1.47;;;0.90;;
14100;SDS011;7127;49.372;8.166;2022-11-21T13:00:51;1.80;;;0.70;;
14100;SDS011;7127;49.372;8.166;2022-11-21T13:03:40;1.73;;;0.80;;
14100;SDS011;7127;49.372;8.166;2022-11-21T13:06:15;1.57;;;0.70;;
14100;SDS011;7127;49.372;8.166;2022-11-21T13:08:47;2.37;;;1.03;;
14100;SDS011;7127;49.372;8.166;2022-11-21T13:11:20;2.40;;;1.00;;
14100;SDS011;7127;49.372;8.166;2022-11-21T13:14:11;1.83;;;0.80;;
14100;SDS011;7127;49.372;8.166;2022-11-21T13:16:46;3.20;;;1.30;;
14100;SDS011;7127;49.372;8.166;2022-11-21T13:19:20;2.33;;;1.00;;
14100;SDS011;7127;49.372;8.166;2022-11-21T13:21:50;3.13;;;0.93;;
14100;SDS011;7127;49.372;8.166;2022-11-21T13:27:23;2.83;;;0.73;;
14100;SDS011;7127;49.372;8.166;2022-11-21T13:32:43;2.37;;;1.10;;
14100;SDS011;7127;49.372;8.166;2022-11-21T13:38:29;2.17;;;0.97;;
14100;SDS011;7127;49.372;8.166;2022-11-21T13:40:57;2.50;;;0.70;;
14100;SDS011;7127;49.372;8.166;2022-11-21T13:43:42;1.60;;;0.77;;
14100;SDS011;7127;49.372;8.166;2022-11-21T13:49:16;1.70;;;0.90;;
14100;SDS011;7127;49.372;8.166;2022-11-21T13:51:48;1.83;;;0.83;;
14100;SDS011;7127;49.372;8.166;2022-11-21T13:54:34;2.03;;;0.93;;
14100;SDS011;7127;49.372;8.166;2022-11-21T13:57:30;2.87;;;1.20;;
14100;SDS011;7127;49.372;8.166;2022-11-21T14:00:20;1.57;;;0.93;;
14100;SDS011;7127;49.372;8.166;2022-11-21T14:06:09;2.93;;;1.00;;
14100;SDS011;7127;49.372;8.166;2022-11-21T14:11:42;1.60;;;1.00;;
14100;SDS011;7127;49.372;8.166;2022-11-21T14:14:23;1.70;;;1.03;;
14100;SDS011;7127;49.372;8.166;2022-11-21T14:17:03;1.40;;;1.00;;
14100;SDS011;7127;49.372;8.166;2022-11-21T14:19:57;1.93;;;1.30;;
14100;SDS011;7127;49.372;8.166;2022-11-21T14:22:27;1.90;;;1.00;;
14100;SDS011;7127;49.372;8.166;2022-11-21T14:25:00;2.67;;;1.13;;
14100;SDS011;7127;49.372;8.166;2022-11-21T14:38:17;3.07;;;1.40;;
14100;SDS011;7127;49.372;8.166;2022-11-21T14:40:46;2.67;;;1.33;;
14100;SDS011;7127;49.372;8.166;2022-11-21T14:43:20;2.67;;;1.30;;
14100;SDS011;7127;49.372;8.166;2022-11-21T14:45:55;3.83;;;1.30;;
14100;SDS011;7127;49.372;8.166;2022-11-21T14:50:57;3.83;;;1.20;;
14100;SDS011;7127;49.372;8.166;2022-11-21T14:53:26;4.13;;;1.40;;
14100;SDS011;7127;49.372;8.166;2022-11-21T14:55:54;1.93;;;1.30;;
14100;SDS011;7127;49.372;8.166;2022-11-21T14:58:21;2.93;;;1.43;;
14100;SDS011;7127;49.372;8.166;2022-11-21T15:01:00;3.77;;;1.53;;
14100;SDS011;7127;49.372;8.166;2022-11-21T15:03:28;3.57;;;1.73;;
14100;SDS011;7127;49.372;8.166;2022-11-21T15:05:58;2.50;;;1.60;;
14100;SDS011;7127;49.372;8.166;2022-11-21T15:08:28;3.43;;;1.77;;
14100;SDS011;7127;49.372;8.166;2022-11-21T15:10:55;2.10;;;1.60;;
14100;SDS011;7127;49.372;8.166;2022-11-21T15:13:26;3.23;;;1.83;;
14100;SDS011;7127;49.372;8.166;2022-11-21T15:15:57;3.07;;;1.70;;
14100;SDS011;7127;49.372;8.166;2022-11-21T15:18:26;2.50;;;1.50;;
14100;SDS011;7127;49.372;8.166;2022-11-21T15:20:56;3.50;;;2.03;;
14100;SDS011;7127;49.372;8.166;2022-11-21T15:23:25;5.50;;;2.30;;
14100;SDS011;7127;49.372;8.166;2022-11-21T15:25:55;4.73;;;2.30;;
14100;SDS011;7127;49.372;8.166;2022-11-21T15:28:23;3.47;;;1.97;;
14100;SDS011;7127;49.372;8.166;2022-11-21T15:33:52;5.90;;;2.60;;
14100;SDS011;7127;49.372;8.166;2022-11-21T15:36:21;6.00;;;2.63;;
14100;SDS011;7127;49.372;8.166;2022-11-21T15:38:49;5.73;;;2.77;;
14100;SDS011;7127;49.372;8.166;2022-11-21T15:41:28;5.23;;;2.60;;
14100;SDS011;7127;49.372;8.166;2022-11-21T15:46:45;4.73;;;2.10;;
14100;SDS011;7127;49.372;8.166;2022-11-21T15:49:15;4.17;;;2.00;;
14100;SDS011;7127;49.372;8.166;2022-11-21T15:51:43;5.93;;;2.07;;
14100;SDS011;7127;49.372;8.166;2022-11-21T15:54:13;3.00;;;1.83;;
14100;SDS011;7127;49.372;8.166;2022-11-21T15:56:41;3.73;;;1.80;;
14100;SDS011;7127;49.372;8.166;2022-11-21T15:59:08;4.83;;;1.93;;
14100;SDS011;7127;49.372;8.166;2022-11-21T16:01:36;3.60;;;1.77;;
14100;SDS011;7127;49.372;8.166;2022-11-21T16:04:04;2.43;;;1.60;;